首页
METAR-TAF:

METAR-TAF

机场 :

Fairford, 英格兰

纬度: 51-41N, 经度: 001-47W, 海拔: 87米

当前天气观测

该预报发布于41分钟前的10:56 UTC
风速11节,风向西转西北,有时为17节阵风
温度 14°C
湿度 44%
气压 997 hPa
能见度10公里或以上
多云层高于6000英尺
阴天层高于7000英尺

METAR: EGVA 051056Z AUTO 30011G17KT 9999 BKN060 OVC070 14/02 A2944 RMK AO2 SLP972 T01420015 $

时间: 12:37 (11:37 UTC)


TAF: 丢失

超过4000个机场的气象观测和天气预报(METAR&TAF报告)。

可查询的气象台以黄色和红色小点在地图上表示。

将鼠标移到小点上方,可查看气象台名称。

然后点击查看天气观测和预报。

如需切换地图:点击带黑十字的绿色按钮放大地图;点击带横线的绿色按钮缩小地图;或者点击绿色箭头查看邻近地区的地图。


METAR-TAF: